createdAt,value
2022-11-02T00:00:13.826Z,23.77
2022-11-02T00:03:01.170Z,24.95
2022-11-02T00:05:28.240Z,25.83
2022-11-02T00:07:55.822Z,24.92
2022-11-02T00:10:23.732Z,23.30
2022-11-02T00:12:51.385Z,23.05
2022-11-02T00:15:18.785Z,23.50
2022-11-02T00:17:48.084Z,23.33
2022-11-02T00:20:17.477Z,22.38
2022-11-02T00:22:44.913Z,23.27
2022-11-02T00:25:12.951Z,21.40
2022-11-02T00:27:40.914Z,21.48
2022-11-02T00:30:08.536Z,22.23
2022-11-02T00:32:35.568Z,22.80
2022-11-02T00:35:02.627Z,21.95
2022-11-02T00:37:30.085Z,25.88
2022-11-02T00:39:56.998Z,24.30
2022-11-02T00:42:24.430Z,23.38
2022-11-02T00:44:51.405Z,22.35
2022-11-02T00:47:20.080Z,23.98
2022-11-02T00:49:47.065Z,22.00
2022-11-02T00:52:14.285Z,22.92
2022-11-02T00:54:46.923Z,23.10
2022-11-02T00:57:13.980Z,22.63
2022-11-02T00:59:41.253Z,24.60
2022-11-02T01:02:08.766Z,24.10
2022-11-02T01:04:35.687Z,24.00
2022-11-02T01:07:03.563Z,25.65
2022-11-02T01:09:30.471Z,25.33
2022-11-02T01:11:57.764Z,24.92
2022-11-02T01:14:24.656Z,24.52
2022-11-02T01:16:51.976Z,26.88
2022-11-02T01:19:19.076Z,28.15
2022-11-02T01:21:46.201Z,27.88
2022-11-02T01:24:13.067Z,26.30
2022-11-02T01:26:40.178Z,29.58
2022-11-02T01:29:07.007Z,27.35
2022-11-02T01:31:34.078Z,25.67
2022-11-02T01:34:03.657Z,26.63
2022-11-02T01:36:30.721Z,27.92
2022-11-02T01:38:57.612Z,29.15
2022-11-02T01:41:24.759Z,28.83
2022-11-02T01:43:55.557Z,29.52
2022-11-02T01:46:26.123Z,30.45
2022-11-02T01:49:01.018Z,31.92
2022-11-02T01:52:00.380Z,29.98
2022-11-02T01:54:30.511Z,29.45
2022-11-02T01:57:07.251Z,30.45
2022-11-02T01:59:38.416Z,31.85
2022-11-02T02:02:09.202Z,30.90
2022-11-02T02:04:36.920Z,32.55
2022-11-02T02:07:04.509Z,32.17
2022-11-02T02:09:32.048Z,36.00
2022-11-02T02:11:59.894Z,37.65
2022-11-02T02:14:26.940Z,36.45
2022-11-02T02:17:15.880Z,33.95
2022-11-02T02:19:58.550Z,35.35
2022-11-02T02:22:53.430Z,37.38
2022-11-02T02:25:38.926Z,38.20
2022-11-02T02:28:19.862Z,37.95
2022-11-02T02:30:54.443Z,38.65
2022-11-02T02:33:39.282Z,38.92
2022-11-02T02:36:36.765Z,37.50
2022-11-02T02:39:12.782Z,38.55
2022-11-02T02:41:45.179Z,39.78
2022-11-02T02:44:17.326Z,40.25
2022-11-02T02:46:50.981Z,40.15
2022-11-02T02:49:23.509Z,38.47
2022-11-02T02:51:51.399Z,38.95
2022-11-02T02:54:26.386Z,41.88
2022-11-02T02:56:55.417Z,39.25
2022-11-02T02:59:26.315Z,39.47
2022-11-02T03:01:54.673Z,34.80
2022-11-02T03:04:21.892Z,34.88
2022-11-02T03:06:51.482Z,34.45
2022-11-02T03:09:18.702Z,33.42
2022-11-02T03:11:52.169Z,31.63
2022-11-02T03:14:38.580Z,34.15
2022-11-02T03:17:18.745Z,32.90
2022-11-02T03:20:24.173Z,32.53
2022-11-02T03:23:09.217Z,32.28
2022-11-02T03:26:07.404Z,33.42
2022-11-02T03:29:01.111Z,33.10
2022-11-02T03:31:45.815Z,33.50
2022-11-02T03:34:14.091Z,32.15
2022-11-02T03:37:20.515Z,33.25
2022-11-02T03:39:50.839Z,33.10
2022-11-02T03:42:21.385Z,33.72
2022-11-02T03:44:55.279Z,33.47
2022-11-02T03:47:23.677Z,36.63
2022-11-02T03:49:52.257Z,33.83
2022-11-02T03:52:26.010Z,39.75
2022-11-02T03:55:08.590Z,44.30
2022-11-02T03:57:49.640Z,43.88
2022-11-02T04:00:22.136Z,43.85
2022-11-02T04:02:59.133Z,47.85
2022-11-02T04:05:29.627Z,49.03
2022-11-02T04:08:15.976Z,47.42
2022-11-02T04:11:02.655Z,45.92
2022-11-02T04:13:48.478Z,47.90
2022-11-02T04:16:16.182Z,42.10
2022-11-02T04:19:02.425Z,45.45
2022-11-02T04:21:30.825Z,42.88
2022-11-02T04:24:18.247Z,40.70
2022-11-02T04:26:46.318Z,42.15
2022-11-02T04:29:13.578Z,41.20
2022-11-02T04:31:40.965Z,40.50
2022-11-02T04:34:08.391Z,39.45
2022-11-02T04:36:35.445Z,41.30
2022-11-02T04:39:03.515Z,40.45
2022-11-02T04:41:42.078Z,39.25
2022-11-02T04:44:29.496Z,42.15
2022-11-02T04:47:16.586Z,38.53
2022-11-02T04:49:44.845Z,37.95
2022-11-02T04:52:15.745Z,38.38
2022-11-02T04:54:48.702Z,38.28
2022-11-02T04:57:15.604Z,37.20
2022-11-02T04:59:43.640Z,37.85
2022-11-02T05:02:10.627Z,38.53
2022-11-02T05:04:38.660Z,39.45
2022-11-02T05:07:07.700Z,38.67
2022-11-02T05:09:36.703Z,37.05
2022-11-02T05:12:05.377Z,36.22
2022-11-02T05:14:34.074Z,35.90
2022-11-02T05:17:01.846Z,36.78
2022-11-02T05:19:28.918Z,35.83
2022-11-02T05:21:55.914Z,35.90
2022-11-02T05:24:24.724Z,36.10
2022-11-02T05:26:54.005Z,34.78
2022-11-02T05:29:23.864Z,35.13
2022-11-02T05:31:52.326Z,35.08
2022-11-02T05:34:19.956Z,37.88
2022-11-02T05:36:48.596Z,38.47
2022-11-02T05:39:16.181Z,36.65
2022-11-02T05:41:43.101Z,32.97
2022-11-02T05:44:10.399Z,33.00
2022-11-02T05:46:39.422Z,33.40
2022-11-02T05:49:06.675Z,32.92
2022-11-02T05:51:33.549Z,33.28
2022-11-02T05:54:00.976Z,32.83
2022-11-02T05:56:27.977Z,34.42
2022-11-02T05:58:55.441Z,35.30
2022-11-02T06:01:22.564Z,32.90
2022-11-02T06:03:53.429Z,33.72
2022-11-02T06:06:20.561Z,33.90
2022-11-02T06:08:47.720Z,33.88
2022-11-02T06:11:15.208Z,33.33
2022-11-02T06:13:42.587Z,34.53
2022-11-02T06:16:11.322Z,35.30
2022-11-02T06:18:39.077Z,33.33
2022-11-02T06:21:06.383Z,33.60
2022-11-02T06:23:33.786Z,31.40
2022-11-02T06:26:01.221Z,32.78
2022-11-02T06:28:28.947Z,32.67
2022-11-02T06:30:56.448Z,33.63
2022-11-02T06:33:23.823Z,33.28
2022-11-02T06:35:52.673Z,33.90
2022-11-02T06:38:20.134Z,32.53
2022-11-02T06:41:06.637Z,33.55
2022-11-02T06:43:38.084Z,32.58
2022-11-02T06:46:05.386Z,34.33
2022-11-02T06:48:35.184Z,35.58
2022-11-02T06:51:04.027Z,35.28
2022-11-02T06:53:31.204Z,36.20
2022-11-02T06:55:59.160Z,33.55
2022-11-02T06:58:26.558Z,34.08
2022-11-02T07:00:58.587Z,33.38
2022-11-02T07:03:25.858Z,33.25
2022-11-02T07:05:53.102Z,33.50
2022-11-02T07:08:20.896Z,32.42
2022-11-02T07:10:48.177Z,32.72
2022-11-02T07:13:15.452Z,36.08
2022-11-02T07:15:42.366Z,34.80
2022-11-02T07:18:09.754Z,36.78
2022-11-02T07:20:36.890Z,37.25
2022-11-02T07:23:05.423Z,33.80
2022-11-02T07:25:33.509Z,36.15
2022-11-02T07:28:01.627Z,37.35
2022-11-02T07:30:29.874Z,37.65
2022-11-02T07:32:57.700Z,35.50
2022-11-02T07:35:25.308Z,36.70
2022-11-02T07:37:59.845Z,36.20
2022-11-02T07:40:28.009Z,40.75
2022-11-02T07:42:55.623Z,35.72
2022-11-02T07:45:32.154Z,33.42
2022-11-02T07:47:59.603Z,35.25
2022-11-02T07:50:27.252Z,36.30
2022-11-02T07:52:56.991Z,35.42
2022-11-02T07:55:26.195Z,33.08
2022-11-02T07:57:57.332Z,33.45
2022-11-02T08:00:25.713Z,33.15
2022-11-02T08:03:00.205Z,33.70
2022-11-02T08:05:29.129Z,33.55
2022-11-02T08:07:59.697Z,33.20
2022-11-02T08:10:27.315Z,34.85
2022-11-02T08:12:54.880Z,34.47
2022-11-02T08:15:21.822Z,35.00
2022-11-02T08:17:59.987Z,34.03
2022-11-02T08:20:26.833Z,35.95
2022-11-02T08:22:54.027Z,37.30
2022-11-02T08:25:20.989Z,36.30
2022-11-02T08:27:48.117Z,35.53
2022-11-02T08:30:15.115Z,37.10
2022-11-02T08:32:42.477Z,35.85
2022-11-02T08:35:09.593Z,39.63
2022-11-02T08:37:36.722Z,39.03
2022-11-02T08:40:03.787Z,38.55
2022-11-02T08:42:30.925Z,35.88
2022-11-02T08:44:57.753Z,34.28
2022-11-02T08:47:24.955Z,27.88
2022-11-02T08:49:51.887Z,28.30
2022-11-02T08:52:19.105Z,31.13
2022-11-02T08:54:45.901Z,30.48
2022-11-02T08:57:13.098Z,31.63
2022-11-02T08:59:40.030Z,31.65
2022-11-02T09:02:08.618Z,31.05
2022-11-02T09:04:35.659Z,28.08
2022-11-02T09:07:02.786Z,29.02
2022-11-02T09:09:29.661Z,27.35
2022-11-02T09:11:56.901Z,27.13
2022-11-02T09:14:23.841Z,25.17
2022-11-02T09:16:51.080Z,23.75
2022-11-02T09:19:17.925Z,25.17
2022-11-02T09:21:45.120Z,24.27
2022-11-02T09:24:12.008Z,27.30
2022-11-02T09:26:39.132Z,27.38
2022-11-02T09:29:06.042Z,29.45
2022-11-02T09:31:33.190Z,29.73
2022-11-02T09:34:00.083Z,29.90
2022-11-02T09:36:27.234Z,34.30
2022-11-02T09:38:54.172Z,36.08
2022-11-02T09:41:35.066Z,36.35
2022-11-02T09:44:09.368Z,39.40
2022-11-02T09:46:41.803Z,39.58
2022-11-02T09:49:20.327Z,42.13
2022-11-02T09:51:47.546Z,43.88
2022-11-02T09:54:35.956Z,45.75
2022-11-02T09:57:17.101Z,45.88
2022-11-02T09:59:43.972Z,45.70
2022-11-02T10:02:30.346Z,45.97
2022-11-02T10:05:15.112Z,46.28
2022-11-02T10:08:09.902Z,44.28
2022-11-02T10:10:42.182Z,44.88
2022-11-02T10:13:37.307Z,46.65
2022-11-02T10:16:06.306Z,45.95
2022-11-02T10:18:34.055Z,44.15
2022-11-02T10:21:05.659Z,44.60
2022-11-02T10:23:51.005Z,37.60
2022-11-02T10:26:33.679Z,36.03
2022-11-02T10:29:19.368Z,35.50
2022-11-02T10:31:46.740Z,35.42
2022-11-02T10:34:23.590Z,29.05
2022-11-02T10:37:09.428Z,29.95
2022-11-02T10:39:42.372Z,29.27
2022-11-02T10:42:21.316Z,28.75
2022-11-02T10:44:59.969Z,29.25
2022-11-02T10:47:52.673Z,29.77
2022-11-02T10:50:32.522Z,30.90
2022-11-02T10:53:27.387Z,31.52
2022-11-02T10:56:41.672Z,32.40
2022-11-02T10:59:23.820Z,34.60
2022-11-02T11:01:56.963Z,33.30
2022-11-02T11:04:28.584Z,36.10
2022-11-02T11:06:59.341Z,36.25
2022-11-02T11:09:30.645Z,36.65
2022-11-02T11:12:00.477Z,38.10
2022-11-02T11:20:31.509Z,34.53
2022-11-02T11:23:22.281Z,35.58
2022-11-02T11:26:02.072Z,32.13
2022-11-02T11:28:41.116Z,33.20
2022-11-02T11:31:14.841Z,34.53
2022-11-02T11:33:47.788Z,35.85
2022-11-02T11:36:33.200Z,32.42
2022-11-02T11:39:02.778Z,31.50
2022-11-02T11:41:31.507Z,32.35
2022-11-02T11:43:59.107Z,32.17
2022-11-02T11:46:39.745Z,31.30
2022-11-02T11:49:19.687Z,31.42
2022-11-02T11:51:50.142Z,29.92
2022-11-02T11:54:32.099Z,30.33
2022-11-02T11:56:59.820Z,27.42
2022-11-02T11:59:30.216Z,27.23
2022-11-02T12:01:59.752Z,26.20
2022-11-02T12:04:32.761Z,26.25
2022-11-02T12:07:20.163Z,26.50
2022-11-02T12:10:05.708Z,26.00
2022-11-02T12:13:09.854Z,26.40
2022-11-02T12:15:40.808Z,26.52
2022-11-02T12:18:26.155Z,25.48
2022-11-02T12:21:28.960Z,28.52
2022-11-02T12:24:05.429Z,27.95
2022-11-02T12:26:41.677Z,29.13
2022-11-02T12:29:32.119Z,26.98
2022-11-02T12:32:22.500Z,28.65
2022-11-02T12:35:29.451Z,29.73
2022-11-02T12:38:39.116Z,28.15
2022-11-02T12:41:32.658Z,27.13
2022-11-02T12:44:09.676Z,25.48
2022-11-02T12:46:43.279Z,25.23
2022-11-02T12:49:39.176Z,26.77
2022-11-02T12:52:22.735Z,23.52
2022-11-02T12:54:56.960Z,24.55
2022-11-02T12:57:26.238Z,23.70
2022-11-02T12:59:56.330Z,24.67
2022-11-02T13:03:07.870Z,23.55
2022-11-02T13:05:40.058Z,20.65
2022-11-02T13:08:22.246Z,21.50
2022-11-02T13:10:55.548Z,24.80
2022-11-02T13:13:32.607Z,21.05
2022-11-02T13:16:01.461Z,22.42
2022-11-02T13:18:45.139Z,21.85
2022-11-02T13:21:14.008Z,21.33
2022-11-02T13:23:45.947Z,22.42
2022-11-02T13:26:27.028Z,21.77
2022-11-02T13:29:14.754Z,21.38
2022-11-02T13:31:45.528Z,21.45
2022-11-02T13:34:15.947Z,21.50
2022-11-02T13:36:44.159Z,22.15
2022-11-02T13:39:26.065Z,23.02
2022-11-02T13:42:08.963Z,22.45
2022-11-02T13:45:15.630Z,24.23
2022-11-02T13:47:55.593Z,23.00
2022-11-02T13:50:23.913Z,24.02
2022-11-02T13:52:59.547Z,21.98
2022-11-02T13:55:41.440Z,22.77
2022-11-02T13:58:22.543Z,22.30
2022-11-02T14:00:49.599Z,22.75
2022-11-02T14:03:20.244Z,22.98
2022-11-02T14:05:58.700Z,22.45
2022-11-02T14:08:36.671Z,23.58
2022-11-02T14:11:09.608Z,26.65
2022-11-02T14:13:55.201Z,27.17
2022-11-02T14:16:43.324Z,31.30
2022-11-02T14:19:19.322Z,28.85
2022-11-02T14:21:53.281Z,22.92
2022-11-02T14:24:32.874Z,23.17
2022-11-02T14:27:12.859Z,23.60
2022-11-02T14:29:44.858Z,23.60
2022-11-02T14:32:20.741Z,23.45
2022-11-02T14:35:15.641Z,22.15
2022-11-02T14:38:24.668Z,23.45
2022-11-02T14:40:57.131Z,22.67
2022-11-02T14:44:00.863Z,23.67
2022-11-02T14:46:50.636Z,23.35
2022-11-02T14:49:21.480Z,28.63
2022-11-02T14:52:07.673Z,26.88
2022-11-02T14:54:50.510Z,27.75
2022-11-02T14:57:17.677Z,27.27
2022-11-02T14:59:50.152Z,28.75
2022-11-02T15:02:20.055Z,33.72
2022-11-02T15:04:49.299Z,36.67
2022-11-02T15:07:22.634Z,31.02
2022-11-02T15:09:55.881Z,34.08
2022-11-02T15:12:27.397Z,33.03
2022-11-02T15:15:33.661Z,30.63
2022-11-02T15:18:31.411Z,33.13
2022-11-02T15:21:22.604Z,33.22
2022-11-02T15:24:04.748Z,33.83
2022-11-02T15:26:53.752Z,33.33
2022-11-02T15:29:26.792Z,33.70
2022-11-02T15:31:56.672Z,30.17
2022-11-02T15:34:40.017Z,29.05
2022-11-02T15:37:08.054Z,29.40
2022-11-02T15:39:35.634Z,29.42
2022-11-02T15:42:40.592Z,32.60
2022-11-02T15:45:26.823Z,36.72
2022-11-02T15:48:09.438Z,44.25
2022-11-02T15:50:53.589Z,34.20
2022-11-02T15:54:01.665Z,32.40
2022-11-02T15:56:43.464Z,33.67
2022-11-02T15:59:47.916Z,36.28
2022-11-02T16:02:23.827Z,38.75
2022-11-02T16:04:59.360Z,37.40
2022-11-02T16:07:38.140Z,36.22
2022-11-02T16:10:30.632Z,33.58
2022-11-02T16:13:07.945Z,33.33
2022-11-02T16:15:35.259Z,34.60
2022-11-02T16:18:02.120Z,34.72
2022-11-02T16:20:31.198Z,36.60
2022-11-02T16:23:03.230Z,35.30
2022-11-02T16:25:39.770Z,32.65
2022-11-02T16:28:19.484Z,33.72
2022-11-02T16:30:59.021Z,32.80
2022-11-02T16:33:28.545Z,36.65
2022-11-02T16:35:56.246Z,34.90
2022-11-02T16:38:23.530Z,37.45
2022-11-02T16:40:51.043Z,37.83
2022-11-02T16:43:18.172Z,36.33
2022-11-02T16:45:47.042Z,36.78
2022-11-02T16:48:16.992Z,35.92
2022-11-02T16:51:15.116Z,37.40
2022-11-02T16:53:43.071Z,36.33
2022-11-02T16:56:16.606Z,36.38
2022-11-02T16:58:48.248Z,36.88
2022-11-02T17:01:21.569Z,38.30
2022-11-02T17:03:49.891Z,41.70
2022-11-02T17:06:18.409Z,42.17
2022-11-02T17:08:51.314Z,38.90
2022-11-02T17:11:18.612Z,46.17
2022-11-02T17:14:11.584Z,39.03
2022-11-02T17:17:06.050Z,34.47
2022-11-02T17:19:41.995Z,35.35
2022-11-02T17:22:21.401Z,35.50
2022-11-02T17:24:48.746Z,33.92
2022-11-02T17:27:28.491Z,37.63
2022-11-02T17:29:55.452Z,40.40
2022-11-02T17:32:23.105Z,40.03
2022-11-02T17:34:52.125Z,43.92
2022-11-02T17:37:26.751Z,44.42
2022-11-02T17:39:54.378Z,47.88
2022-11-02T17:42:45.016Z,39.65
2022-11-02T17:45:21.485Z,37.75
2022-11-02T17:47:48.760Z,39.13
2022-11-02T17:50:15.912Z,36.97
2022-11-02T17:52:44.593Z,37.15
2022-11-02T17:55:31.416Z,37.50
2022-11-02T17:57:59.393Z,38.40
2022-11-02T18:00:27.914Z,35.58
2022-11-02T18:02:56.936Z,36.88
2022-11-02T18:05:26.908Z,37.47
2022-11-02T18:07:55.611Z,36.70
2022-11-02T18:10:33.759Z,39.75
2022-11-02T18:13:01.369Z,38.70
2022-11-02T18:15:30.639Z,40.20
2022-11-02T18:18:00.137Z,42.30
2022-11-02T18:20:28.146Z,43.60
2022-11-02T18:22:55.882Z,46.33
2022-11-02T18:25:23.284Z,45.75
2022-11-02T18:27:50.432Z,45.55
2022-11-02T18:30:18.218Z,45.80
2022-11-02T18:32:46.509Z,46.78
2022-11-02T18:35:16.298Z,44.28
2022-11-02T18:37:44.046Z,46.38
2022-11-02T18:40:12.761Z,43.85
2022-11-02T18:42:40.861Z,45.22
2022-11-02T18:45:09.213Z,44.42
2022-11-02T18:47:36.498Z,47.15
2022-11-02T18:50:07.591Z,44.33
2022-11-02T18:52:35.018Z,41.90
2022-11-02T18:55:03.813Z,43.42
2022-11-02T18:57:32.160Z,43.72
2022-11-02T18:59:59.825Z,43.33
2022-11-02T19:02:27.153Z,44.05
2022-11-02T19:04:54.098Z,46.17
2022-11-02T19:07:39.695Z,46.55
2022-11-02T19:10:06.742Z,44.28
2022-11-02T19:12:33.937Z,48.10
2022-11-02T19:15:02.110Z,47.05
2022-11-02T19:17:29.425Z,47.22
2022-11-02T19:19:56.558Z,51.63
2022-11-02T19:22:26.112Z,56.75
2022-11-02T19:24:53.600Z,56.38
2022-11-02T19:27:25.301Z,49.17
2022-11-02T19:29:52.602Z,47.53
2022-11-02T19:32:20.186Z,50.20
2022-11-02T19:34:47.171Z,52.92
2022-11-02T19:37:14.436Z,52.10
2022-11-02T19:39:41.460Z,45.15
2022-11-02T19:42:08.848Z,43.75
2022-11-02T19:44:41.249Z,45.40
2022-11-02T19:47:10.373Z,43.75
2022-11-02T19:49:37.251Z,47.25
2022-11-02T19:52:04.422Z,55.05
2022-11-02T19:54:31.257Z,51.08
2022-11-02T19:56:58.436Z,65.05
2022-11-02T19:59:25.283Z,55.95
2022-11-02T20:01:52.629Z,47.40
2022-11-02T20:04:19.658Z,42.75
2022-11-02T20:06:46.799Z,43.58
2022-11-02T20:09:18.395Z,41.67
2022-11-02T20:11:47.193Z,41.58
2022-11-02T20:14:15.469Z,43.10
2022-11-02T20:16:43.033Z,44.80
2022-11-02T20:19:10.951Z,45.80
2022-11-02T20:21:42.955Z,45.45
2022-11-02T20:24:11.658Z,46.28
2022-11-02T20:26:41.109Z,46.97
2022-11-02T20:29:10.915Z,51.38
2022-11-02T20:31:41.897Z,57.53
2022-11-02T20:34:09.251Z,50.13
2022-11-02T20:36:36.478Z,49.60
2022-11-02T20:39:04.855Z,49.83
2022-11-02T20:41:32.284Z,48.58
2022-11-02T20:43:59.387Z,50.53
2022-11-02T20:46:37.415Z,50.45
2022-11-02T20:49:20.074Z,50.47
2022-11-02T20:51:49.615Z,46.88
2022-11-02T20:54:18.397Z,41.55
2022-11-02T20:56:45.134Z,41.25
2022-11-02T20:59:12.298Z,41.95
2022-11-02T21:01:39.261Z,41.25
2022-11-02T21:04:06.681Z,40.38
2022-11-02T21:06:33.738Z,39.63
2022-11-02T21:09:01.099Z,40.92
2022-11-02T21:11:46.349Z,38.85
2022-11-02T21:14:13.504Z,39.55
2022-11-02T21:16:40.327Z,37.17
2022-11-02T21:19:07.692Z,38.10
2022-11-02T21:21:34.610Z,39.00
2022-11-02T21:24:01.791Z,36.35
2022-11-02T21:26:28.622Z,39.20
2022-11-02T21:28:55.766Z,38.22
2022-11-02T21:31:22.723Z,38.10
2022-11-02T21:33:50.143Z,36.70
2022-11-02T21:36:17.700Z,39.25
2022-11-02T21:38:45.478Z,40.50
2022-11-02T21:41:18.216Z,36.45
2022-11-02T21:43:45.411Z,39.50
2022-11-02T21:46:12.264Z,40.13
2022-11-02T21:48:39.487Z,34.60
2022-11-02T21:51:11.321Z,37.20
2022-11-02T21:53:40.813Z,31.90
2022-11-02T21:56:17.632Z,30.17
2022-11-02T21:58:46.499Z,33.13
2022-11-02T22:01:38.503Z,28.42
2022-11-02T22:04:06.653Z,27.10
2022-11-02T22:06:33.607Z,26.00
2022-11-02T22:09:01.463Z,28.40
2022-11-02T22:11:28.960Z,28.10
2022-11-02T22:13:58.153Z,27.38
2022-11-02T22:16:31.702Z,26.90
2022-11-02T22:19:00.347Z,26.58
2022-11-02T22:21:29.438Z,26.17
2022-11-02T22:23:57.275Z,26.92
2022-11-02T22:26:26.107Z,26.77
2022-11-02T22:28:53.374Z,25.45
2022-11-02T22:31:22.500Z,24.95
2022-11-02T22:33:52.362Z,25.23
2022-11-02T22:36:21.520Z,24.15
2022-11-02T22:38:53.754Z,24.25
2022-11-02T22:41:22.224Z,24.58
2022-11-02T22:44:01.737Z,24.23
2022-11-02T22:46:29.978Z,23.65
2022-11-02T22:48:58.556Z,23.58
2022-11-02T22:51:27.741Z,21.33
2022-11-02T22:53:55.278Z,21.67
2022-11-02T22:56:23.350Z,22.40
2022-11-02T22:58:51.481Z,20.95
2022-11-02T23:01:21.100Z,21.85
2022-11-02T23:03:48.878Z,21.52
2022-11-02T23:06:17.021Z,20.90
2022-11-02T23:08:46.028Z,20.70
2022-11-02T23:11:24.234Z,21.48
2022-11-02T23:13:55.582Z,22.55
2022-11-02T23:16:27.845Z,20.88
2022-11-02T23:19:27.333Z,21.60
2022-11-02T23:22:24.157Z,20.52
2022-11-02T23:25:10.879Z,19.45
2022-11-02T23:27:59.669Z,19.75
2022-11-02T23:30:47.889Z,19.67
2022-11-02T23:33:15.161Z,19.98
2022-11-02T23:36:00.930Z,19.70
2022-11-02T23:38:50.371Z,20.77
2022-11-02T23:41:18.428Z,19.40
2022-11-02T23:43:45.919Z,20.10
2022-11-02T23:46:13.171Z,20.45
2022-11-02T23:48:44.989Z,19.75
2022-11-02T23:51:32.747Z,19.50
2022-11-02T23:54:18.177Z,18.42
2022-11-02T23:56:45.415Z,18.77
2022-11-02T23:59:16.703Z,19.30
